createdAt,value
2018-05-13T00:00:44.526Z,71.73
2018-05-13T00:03:12.005Z,72.13
2018-05-13T00:05:39.509Z,72.29
2018-05-13T00:08:06.994Z,72.55
2018-05-13T00:10:34.464Z,72.35
2018-05-13T00:13:02.111Z,72.51
2018-05-13T00:15:32.205Z,72.98
2018-05-13T00:17:59.862Z,73.24
2018-05-13T00:20:27.366Z,73.30
2018-05-13T00:22:54.857Z,74.00
2018-05-13T00:25:22.715Z,73.78
2018-05-13T00:27:50.202Z,74.19
2018-05-13T00:30:17.672Z,74.11
2018-05-13T00:32:45.165Z,74.34
2018-05-13T00:35:12.652Z,74.52
2018-05-13T00:37:40.257Z,75.27
2018-05-13T00:40:07.735Z,75.16
2018-05-13T00:42:37.193Z,75.59
2018-05-13T00:45:04.682Z,75.54
2018-05-13T00:47:32.162Z,75.84
2018-05-13T00:49:59.645Z,76.39
2018-05-13T00:52:27.109Z,76.43
2018-05-13T00:54:55.234Z,76.63
2018-05-13T00:57:22.856Z,76.87
2018-05-13T00:59:50.895Z,77.04
2018-05-13T01:02:18.389Z,77.37
2018-05-13T01:04:45.901Z,77.42
2018-05-13T01:07:13.387Z,77.42
2018-05-13T01:09:41.007Z,77.68
2018-05-13T01:12:08.484Z,77.77
2018-05-13T01:14:35.960Z,77.48
2018-05-13T01:17:03.443Z,77.53
2018-05-13T01:19:30.938Z,77.53
2018-05-13T01:21:58.405Z,77.72
2018-05-13T01:24:25.906Z,78.00
2018-05-13T01:26:53.379Z,77.75
2018-05-13T01:29:20.897Z,77.75
2018-05-13T01:31:48.402Z,77.86
2018-05-13T01:34:15.881Z,77.69
2018-05-13T01:36:43.372Z,77.67
2018-05-13T01:39:10.848Z,78.40
2018-05-13T01:41:38.346Z,78.26
2018-05-13T01:44:05.840Z,78.71
2018-05-13T01:46:33.365Z,78.41
2018-05-13T01:49:00.893Z,78.34
2018-05-13T01:51:28.382Z,78.54
2018-05-13T01:53:55.836Z,78.43
2018-05-13T01:56:23.309Z,78.20
2018-05-13T01:58:50.788Z,78.74
2018-05-13T02:01:18.273Z,78.41
2018-05-13T02:03:45.757Z,77.86
2018-05-13T02:06:13.234Z,78.21
2018-05-13T02:08:40.747Z,78.44
2018-05-13T02:11:08.204Z,78.46
2018-05-13T02:13:35.706Z,79.22
2018-05-13T02:16:03.208Z,79.60
2018-05-13T02:18:30.694Z,79.57
2018-05-13T02:20:58.683Z,79.98
2018-05-13T02:23:26.189Z,79.71
2018-05-13T02:25:53.651Z,79.76
2018-05-13T02:28:21.123Z,79.91
2018-05-13T02:30:48.614Z,79.96
2018-05-13T02:33:16.089Z,79.62
2018-05-13T02:35:43.613Z,80.17
2018-05-13T02:38:11.093Z,79.67
2018-05-13T02:40:38.575Z,79.48
2018-05-13T02:43:06.031Z,79.77
2018-05-13T02:45:33.540Z,80.04
2018-05-13T02:48:01.000Z,80.20
2018-05-13T02:50:28.693Z,80.62
2018-05-13T02:52:56.280Z,81.08
2018-05-13T02:55:23.787Z,81.39
2018-05-13T02:57:51.269Z,81.47
2018-05-13T03:00:18.742Z,81.65
2018-05-13T03:02:46.246Z,82.10
2018-05-13T03:05:13.709Z,82.31
2018-05-13T03:07:41.233Z,82.42
2018-05-13T03:10:08.716Z,82.51
2018-05-13T03:12:36.253Z,82.44
2018-05-13T03:15:03.716Z,82.37
2018-05-13T03:17:31.264Z,82.47
2018-05-13T03:19:58.748Z,82.57
2018-05-13T03:22:26.219Z,82.42
2018-05-13T03:24:53.705Z,82.76
2018-05-13T03:27:21.167Z,83.00
2018-05-13T03:29:48.658Z,83.14
2018-05-13T03:32:16.504Z,83.38
2018-05-13T03:34:43.997Z,83.52
2018-05-13T03:37:11.482Z,83.81
2018-05-13T03:39:38.992Z,83.83
2018-05-13T03:42:06.466Z,83.96
2018-05-13T03:44:33.945Z,84.01
2018-05-13T03:47:01.441Z,84.07
2018-05-13T03:49:28.968Z,84.00
2018-05-13T03:51:56.472Z,84.00
2018-05-13T03:54:23.932Z,84.04
2018-05-13T03:56:51.446Z,84.00
2018-05-13T03:59:18.970Z,84.20
2018-05-13T04:01:46.448Z,84.39
2018-05-13T04:04:13.934Z,84.76
2018-05-13T04:06:41.418Z,84.74
2018-05-13T04:09:20.725Z,84.84
2018-05-13T04:12:00.186Z,85.01
2018-05-13T04:14:39.445Z,85.04
2018-05-13T04:17:06.934Z,84.94
2018-05-13T04:19:34.436Z,84.77
2018-05-13T04:22:01.930Z,84.75
2018-05-13T04:24:29.421Z,84.64
2018-05-13T04:26:56.904Z,84.54
2018-05-13T04:29:24.408Z,84.51
2018-05-13T04:31:51.955Z,84.36
2018-05-13T04:34:19.454Z,84.25
2018-05-13T04:36:46.957Z,84.33
2018-05-13T04:39:14.540Z,84.13
2018-05-13T04:41:42.012Z,84.03
2018-05-13T04:44:09.540Z,83.87
2018-05-13T04:46:37.030Z,83.76
2018-05-13T04:49:04.514Z,83.46
2018-05-13T04:51:32.020Z,83.34
2018-05-13T04:53:59.532Z,83.16
2018-05-13T04:56:27.783Z,83.29
2018-05-13T04:58:55.263Z,83.15
2018-05-13T05:01:22.779Z,83.41
2018-05-13T05:03:50.266Z,83.58
2018-05-13T05:06:17.740Z,83.35
2018-05-13T05:08:45.393Z,82.97
2018-05-13T05:11:12.883Z,82.85
2018-05-13T05:13:40.409Z,82.54
2018-05-13T05:16:07.960Z,82.62
2018-05-13T05:18:35.588Z,82.69
2018-05-13T05:21:03.062Z,82.51
2018-05-13T05:23:30.557Z,82.72
2018-05-13T05:25:58.049Z,82.81
2018-05-13T05:28:25.575Z,83.11
2018-05-13T05:30:53.179Z,82.76
2018-05-13T05:33:20.665Z,82.87
2018-05-13T05:35:48.336Z,82.58
2018-05-13T05:38:15.846Z,82.35
2018-05-13T05:40:43.326Z,82.05
2018-05-13T05:43:10.818Z,81.83
2018-05-13T05:45:38.324Z,81.72
2018-05-13T05:48:05.815Z,81.37
2018-05-13T05:50:33.300Z,81.37
2018-05-13T05:53:00.826Z,81.03
2018-05-13T05:55:28.342Z,80.67
2018-05-13T05:57:55.829Z,80.84
2018-05-13T06:00:23.527Z,81.11
2018-05-13T06:02:51.123Z,80.74
2018-05-13T06:05:18.594Z,80.53
2018-05-13T06:07:46.083Z,80.32
2018-05-13T06:10:13.552Z,80.12
2018-05-13T06:12:41.056Z,80.14
2018-05-13T06:15:08.524Z,79.98
2018-05-13T06:17:36.002Z,79.30
2018-05-13T06:20:03.515Z,79.74
2018-05-13T06:22:31.014Z,80.58
2018-05-13T06:24:59.371Z,80.45
2018-05-13T06:27:26.864Z,80.38
2018-05-13T06:29:54.376Z,79.71
2018-05-13T06:32:21.852Z,79.20
2018-05-13T06:34:49.366Z,79.22
2018-05-13T06:37:16.908Z,78.73
2018-05-13T06:39:44.459Z,77.94
2018-05-13T06:42:11.908Z,77.70
2018-05-13T06:44:39.394Z,78.26
2018-05-13T06:47:06.924Z,78.35
2018-05-13T06:49:34.401Z,77.66
2018-05-13T06:52:01.899Z,77.70
2018-05-13T06:54:29.386Z,77.92
2018-05-13T06:56:56.872Z,77.45
2018-05-13T06:59:24.438Z,77.33
2018-05-13T07:01:51.965Z,76.34
2018-05-13T07:04:19.613Z,76.34
2018-05-13T07:06:47.084Z,75.91
2018-05-13T07:09:14.586Z,74.24
2018-05-13T07:11:42.077Z,72.88
2018-05-13T07:14:09.575Z,72.43
2018-05-13T07:16:37.060Z,72.47
2018-05-13T07:19:04.571Z,70.46
2018-05-13T07:21:32.057Z,70.89
2018-05-13T07:23:59.562Z,70.42
2018-05-13T07:26:27.038Z,70.51
2018-05-13T07:28:54.509Z,69.57
2018-05-13T07:31:22.020Z,69.52
2018-05-13T07:33:49.506Z,68.97
2018-05-13T07:36:17.060Z,69.01
2018-05-13T07:38:44.537Z,69.07
2018-05-13T07:41:12.033Z,68.75
2018-05-13T07:43:39.498Z,67.83
2018-05-13T07:46:07.000Z,68.96
2018-05-13T07:48:34.480Z,69.01
2018-05-13T07:51:02.000Z,69.28
2018-05-13T07:53:29.469Z,68.71
2018-05-13T07:55:56.949Z,68.79
2018-05-13T07:58:24.404Z,66.51
2018-05-13T08:00:51.905Z,65.65
2018-05-13T08:03:19.410Z,65.89
2018-05-13T08:05:46.875Z,66.12
2018-05-13T08:08:14.357Z,66.07
2018-05-13T08:10:41.840Z,65.99
2018-05-13T08:13:09.337Z,65.80
2018-05-13T08:15:36.803Z,64.73
2018-05-13T08:18:04.301Z,63.65
2018-05-13T08:20:31.800Z,63.10
2018-05-13T08:22:59.296Z,64.09
2018-05-13T08:25:26.771Z,63.92
2018-05-13T08:27:54.321Z,65.87
2018-05-13T08:30:21.738Z,63.90
2018-05-13T08:32:49.238Z,63.51
2018-05-13T08:35:16.733Z,62.37
2018-05-13T08:37:44.191Z,61.79
2018-05-13T08:40:11.712Z,61.63
2018-05-13T08:42:39.176Z,61.20
2018-05-13T08:45:06.663Z,61.87
2018-05-13T08:47:34.147Z,61.10
2018-05-13T08:50:01.631Z,62.24
2018-05-13T08:52:29.129Z,62.16
2018-05-13T08:54:56.623Z,61.63
2018-05-13T08:57:24.121Z,60.13
2018-05-13T08:59:51.578Z,61.95
2018-05-13T09:02:19.066Z,60.06
2018-05-13T09:04:46.575Z,60.85
2018-05-13T09:07:14.085Z,60.56
2018-05-13T09:09:41.569Z,61.50
2018-05-13T09:12:09.063Z,59.93
2018-05-13T09:14:36.592Z,60.11
2018-05-13T09:17:04.074Z,60.46
2018-05-13T09:19:31.571Z,61.73
2018-05-13T09:21:59.061Z,60.86
2018-05-13T09:24:26.566Z,60.14
2018-05-13T09:26:54.023Z,59.50
2018-05-13T09:29:21.537Z,60.28
2018-05-13T09:31:49.016Z,60.11
2018-05-13T09:34:16.723Z,56.63
2018-05-13T09:36:44.191Z,56.51
2018-05-13T09:39:11.690Z,57.53
2018-05-13T09:41:39.159Z,57.70
2018-05-13T09:44:06.645Z,56.73
2018-05-13T09:46:34.126Z,55.60
2018-05-13T09:49:01.608Z,56.92
2018-05-13T09:51:29.095Z,57.74
2018-05-13T09:53:56.549Z,56.83
2018-05-13T09:56:24.047Z,55.96
2018-05-13T09:58:51.527Z,55.79
2018-05-13T10:01:19.021Z,54.92
2018-05-13T10:03:46.512Z,54.50
2018-05-13T10:06:13.967Z,55.79
2018-05-13T10:08:41.475Z,56.25
2018-05-13T10:11:08.942Z,54.51
2018-05-13T10:13:36.437Z,52.88
2018-05-13T10:16:03.909Z,53.57
2018-05-13T10:18:31.410Z,53.57
2018-05-13T10:20:58.920Z,53.49
2018-05-13T10:23:26.529Z,51.35
2018-05-13T10:25:54.309Z,50.64
2018-05-13T10:28:21.789Z,51.64
2018-05-13T10:30:49.265Z,51.16
2018-05-13T10:33:16.759Z,49.17
2018-05-13T10:35:44.244Z,51.25
2018-05-13T10:38:11.730Z,49.68
2018-05-13T10:40:39.221Z,51.62
2018-05-13T10:43:06.694Z,51.76
2018-05-13T10:45:34.193Z,50.00
2018-05-13T10:48:01.675Z,50.00
2018-05-13T10:50:29.151Z,49.57
2018-05-13T10:52:56.649Z,47.98
2018-05-13T10:55:24.099Z,45.94
2018-05-13T10:57:51.622Z,45.14
2018-05-13T11:00:19.064Z,49.27
2018-05-13T11:02:46.562Z,47.71
2018-05-13T11:05:14.039Z,46.86
2018-05-13T11:07:41.527Z,47.92
2018-05-13T11:10:09.087Z,46.91
2018-05-13T11:12:36.526Z,47.57
2018-05-13T11:15:04.017Z,45.70
2018-05-13T11:17:31.513Z,47.02
2018-05-13T11:19:58.999Z,48.61
2018-05-13T11:22:26.477Z,45.38
2018-05-13T11:24:53.979Z,48.06
2018-05-13T11:27:21.446Z,47.19
2018-05-13T11:29:48.948Z,44.82
2018-05-13T11:32:16.422Z,45.30
2018-05-13T11:34:43.931Z,45.04
2018-05-13T11:37:11.416Z,46.86
2018-05-13T11:39:38.909Z,47.17
2018-05-13T11:42:06.381Z,45.59
2018-05-13T11:44:33.896Z,43.87
2018-05-13T11:47:01.354Z,44.61
2018-05-13T11:49:28.842Z,43.08
2018-05-13T11:51:56.347Z,45.42
2018-05-13T11:54:23.810Z,45.48
2018-05-13T11:56:51.462Z,43.85
2018-05-13T11:59:18.915Z,44.78
2018-05-13T12:01:47.521Z,42.86
2018-05-13T12:04:15.001Z,44.10
2018-05-13T12:06:42.480Z,42.02
2018-05-13T12:09:09.942Z,43.00
2018-05-13T12:11:37.449Z,43.21
2018-05-13T12:14:04.916Z,43.79
2018-05-13T12:16:32.367Z,43.42
2018-05-13T12:18:59.868Z,42.83
2018-05-13T12:21:27.342Z,42.82
2018-05-13T12:23:54.838Z,41.35
2018-05-13T12:26:22.310Z,41.31
2018-05-13T12:28:49.828Z,41.05
2018-05-13T12:31:17.298Z,43.68
2018-05-13T12:33:44.795Z,40.66
2018-05-13T12:36:12.260Z,42.91
2018-05-13T12:38:39.758Z,42.71
2018-05-13T12:41:07.226Z,41.26
2018-05-13T12:43:34.759Z,42.24
2018-05-13T12:46:02.263Z,43.73
2018-05-13T12:48:29.731Z,43.70
2018-05-13T12:50:57.237Z,42.95
2018-05-13T12:53:24.708Z,43.09
2018-05-13T12:55:52.338Z,43.20
2018-05-13T12:58:19.892Z,43.01
2018-05-13T13:00:47.326Z,42.13
2018-05-13T13:03:14.805Z,42.03
2018-05-13T13:05:42.350Z,42.99
2018-05-13T13:08:09.856Z,43.78
2018-05-13T13:10:37.360Z,44.32
2018-05-13T13:13:04.917Z,41.85
2018-05-13T13:15:32.345Z,42.55
2018-05-13T13:17:59.846Z,41.51
2018-05-13T13:20:27.337Z,43.59
2018-05-13T13:22:54.818Z,41.78
2018-05-13T13:25:22.290Z,40.69
2018-05-13T13:27:49.811Z,41.99
2018-05-13T13:30:17.806Z,42.73
2018-05-13T13:32:45.259Z,42.38
2018-05-13T13:35:12.724Z,40.72
2018-05-13T13:37:40.231Z,39.95
2018-05-13T13:40:07.719Z,42.13
2018-05-13T13:42:35.192Z,39.76
2018-05-13T13:45:02.922Z,39.49
2018-05-13T13:47:30.391Z,39.73
2018-05-13T13:49:57.908Z,38.14
2018-05-13T13:52:25.400Z,38.48
2018-05-13T13:54:52.880Z,38.13
2018-05-13T13:57:20.338Z,37.99
2018-05-13T13:59:47.835Z,37.73
2018-05-13T14:02:15.360Z,36.82
2018-05-13T14:04:42.858Z,36.56
2018-05-13T14:07:10.320Z,36.45
2018-05-13T14:09:37.786Z,34.78
2018-05-13T14:12:05.285Z,34.75
2018-05-13T14:14:32.764Z,34.51
2018-05-13T14:17:00.265Z,33.16
2018-05-13T14:19:27.733Z,32.76
2018-05-13T14:21:55.300Z,31.90
2018-05-13T14:24:22.796Z,31.96
2018-05-13T14:26:50.322Z,31.05
2018-05-13T14:29:17.849Z,31.18
2018-05-13T14:31:45.281Z,32.61
2018-05-13T14:34:12.757Z,33.16
2018-05-13T14:36:40.254Z,30.26
2018-05-13T14:39:12.125Z,30.80
2018-05-13T14:41:35.641Z,31.05
2018-05-13T14:44:03.567Z,30.20
2018-05-13T14:46:31.790Z,30.53
2018-05-13T14:48:59.301Z,29.58
2018-05-13T14:51:27.065Z,30.34
2018-05-13T14:53:55.076Z,30.59
2018-05-13T14:56:22.875Z,29.90
2018-05-13T14:58:50.382Z,29.35
2018-05-13T15:01:17.906Z,29.74
2018-05-13T15:03:45.885Z,29.81
2018-05-13T15:06:13.717Z,29.34
2018-05-13T15:08:41.414Z,29.66
2018-05-13T15:11:08.981Z,28.00
2018-05-13T15:13:36.845Z,28.44
2018-05-13T15:16:04.508Z,27.58
2018-05-13T15:18:32.362Z,28.17
2018-05-13T15:20:59.949Z,27.94
2018-05-13T15:23:27.460Z,28.02
2018-05-13T15:25:55.217Z,29.41
2018-05-13T15:28:22.738Z,29.23
2018-05-13T15:30:50.259Z,31.20
2018-05-13T15:33:17.934Z,30.69
2018-05-13T15:35:45.457Z,31.70
2018-05-13T15:38:13.271Z,32.77
2018-05-13T15:40:40.747Z,33.65
2018-05-13T15:43:08.472Z,34.18
2018-05-13T15:45:35.911Z,34.23
2018-05-13T15:48:03.836Z,34.92
2018-05-13T15:50:31.321Z,34.36
2018-05-13T15:52:59.420Z,32.95
2018-05-13T15:55:27.198Z,31.46
2018-05-13T15:57:55.355Z,30.54
2018-05-13T16:00:22.875Z,31.07
2018-05-13T16:02:50.806Z,31.05
2018-05-13T16:05:18.855Z,31.83
2018-05-13T16:07:46.783Z,31.95
2018-05-13T16:10:14.254Z,32.69
2018-05-13T16:12:41.729Z,33.67
2018-05-13T16:15:09.248Z,33.83
2018-05-13T16:17:37.128Z,34.27
2018-05-13T16:20:04.645Z,35.04
2018-05-13T16:22:32.169Z,36.75
2018-05-13T16:24:59.675Z,38.04
2018-05-13T16:27:27.172Z,39.85
2018-05-13T16:29:54.812Z,41.23
2018-05-13T16:32:22.295Z,41.74
2018-05-13T16:34:50.075Z,42.40
2018-05-13T16:37:17.578Z,42.68
2018-05-13T16:39:45.062Z,42.93
2018-05-13T16:42:13.080Z,43.14
2018-05-13T16:44:41.178Z,43.49
2018-05-13T16:47:08.893Z,43.92
2018-05-13T16:49:36.400Z,44.03
2018-05-13T16:52:03.973Z,44.42
2018-05-13T16:54:31.455Z,44.49
2018-05-13T16:56:58.953Z,44.81
2018-05-13T16:59:26.434Z,44.81
2018-05-13T17:01:53.909Z,44.62
2018-05-13T17:04:21.410Z,44.59
2018-05-13T17:06:48.910Z,44.89
2018-05-13T17:09:16.542Z,44.85
2018-05-13T17:11:43.917Z,45.34
2018-05-13T17:14:11.373Z,45.44
2018-05-13T17:16:38.885Z,45.42
2018-05-13T17:19:06.352Z,45.77
2018-05-13T17:21:33.849Z,45.99
2018-05-13T17:24:01.329Z,46.25
2018-05-13T17:26:28.783Z,46.43
2018-05-13T17:28:56.291Z,46.45
2018-05-13T17:31:23.779Z,46.54
2018-05-13T17:33:51.287Z,46.98
2018-05-13T17:36:18.785Z,46.76
2018-05-13T17:38:46.303Z,46.88
2018-05-13T17:41:13.812Z,47.23
2018-05-13T17:43:41.526Z,47.54
2018-05-13T17:46:09.024Z,47.69
2018-05-13T17:48:36.521Z,47.69
2018-05-13T17:51:04.166Z,47.72
2018-05-13T17:53:31.668Z,47.90
2018-05-13T17:55:59.383Z,48.06
2018-05-13T17:58:26.883Z,48.25
2018-05-13T18:00:54.461Z,48.39
2018-05-13T18:03:22.077Z,48.68
2018-05-13T18:05:49.344Z,48.90
2018-05-13T18:08:16.843Z,49.56
2018-05-13T18:10:44.330Z,51.07
2018-05-13T18:13:11.856Z,50.55
2018-05-13T18:15:39.328Z,51.42
2018-05-13T18:18:06.837Z,52.39
2018-05-13T18:20:34.336Z,52.68
2018-05-13T18:23:01.859Z,54.19
2018-05-13T18:25:29.345Z,55.42
2018-05-13T18:27:56.865Z,61.76
2018-05-13T18:30:24.342Z,64.54
2018-05-13T18:32:51.844Z,66.75
2018-05-13T18:35:19.354Z,69.85
2018-05-13T18:37:46.844Z,68.30
2018-05-13T18:40:14.380Z,70.73
2018-05-13T18:42:41.932Z,70.79
2018-05-13T18:45:09.469Z,70.43
2018-05-13T18:47:37.014Z,73.51
2018-05-13T18:50:04.555Z,74.19
2018-05-13T18:52:32.064Z,75.19
2018-05-13T18:54:59.652Z,76.38
2018-05-13T18:57:27.162Z,78.03
2018-05-13T18:59:54.704Z,77.79
2018-05-13T19:02:22.221Z,77.75
2018-05-13T19:04:49.692Z,79.00
2018-05-13T19:07:17.225Z,79.63
2018-05-13T19:09:44.708Z,78.72
2018-05-13T19:12:12.335Z,78.25
2018-05-13T19:14:39.891Z,79.03
2018-05-13T19:17:07.410Z,80.27
2018-05-13T19:19:36.053Z,79.89
2018-05-13T19:22:03.591Z,79.15
2018-05-13T19:24:31.102Z,77.70
2018-05-13T19:26:58.631Z,77.66
2018-05-13T19:29:26.153Z,77.94
2018-05-13T19:31:53.627Z,77.49
2018-05-13T19:34:21.186Z,77.82
2018-05-13T19:36:48.768Z,77.08
2018-05-13T19:39:16.286Z,76.68
2018-05-13T19:41:43.784Z,77.18
2018-05-13T19:44:11.289Z,78.17
2018-05-13T19:46:38.777Z,78.92
2018-05-13T19:49:06.311Z,78.95
2018-05-13T19:51:33.807Z,79.10
2018-05-13T19:54:01.303Z,78.01
2018-05-13T19:56:28.836Z,77.98
2018-05-13T19:58:56.313Z,78.71
2018-05-13T20:01:24.057Z,78.90
2018-05-13T20:03:51.618Z,79.67
2018-05-13T20:06:19.099Z,80.78
2018-05-13T20:08:46.667Z,81.18
2018-05-13T20:11:14.129Z,80.19
2018-05-13T20:13:41.701Z,81.81
2018-05-13T20:16:09.172Z,82.18
2018-05-13T20:18:36.705Z,82.04
2018-05-13T20:21:04.221Z,82.30
2018-05-13T20:23:31.720Z,82.90
2018-05-13T20:25:59.210Z,83.27
2018-05-13T20:28:26.721Z,84.05
2018-05-13T20:30:54.202Z,83.50
2018-05-13T20:33:21.699Z,84.14
2018-05-13T20:35:49.203Z,83.88
2018-05-13T20:38:16.710Z,84.12
2018-05-13T20:40:44.327Z,84.17
2018-05-13T20:43:11.800Z,84.13
2018-05-13T20:45:39.292Z,84.19
2018-05-13T20:48:06.766Z,84.36
2018-05-13T20:50:34.256Z,83.54
2018-05-13T20:53:01.743Z,83.40
2018-05-13T20:55:29.233Z,82.56
2018-05-13T20:57:56.813Z,83.04
2018-05-13T21:00:24.233Z,82.83
2018-05-13T21:02:51.711Z,82.36
2018-05-13T21:05:19.295Z,82.59
2018-05-13T21:07:46.723Z,82.61
2018-05-13T21:10:14.206Z,81.96
2018-05-13T21:12:41.726Z,82.45
2018-05-13T21:15:09.210Z,81.97
2018-05-13T21:17:36.709Z,82.64
2018-05-13T21:20:04.184Z,82.52
2018-05-13T21:22:31.655Z,82.56
2018-05-13T21:24:59.143Z,82.98
2018-05-13T21:27:26.615Z,83.95
2018-05-13T21:29:54.086Z,84.35
2018-05-13T21:32:21.541Z,85.01
2018-05-13T21:34:49.017Z,84.63
2018-05-13T21:37:16.492Z,84.08
2018-05-13T21:39:44.022Z,83.91
2018-05-13T21:42:11.476Z,83.46
2018-05-13T21:44:38.970Z,83.95
2018-05-13T21:47:06.476Z,84.27
2018-05-13T21:49:33.920Z,84.11
2018-05-13T21:52:01.415Z,84.06
2018-05-13T21:54:29.064Z,84.60
2018-05-13T21:56:56.486Z,85.32
2018-05-13T21:59:23.960Z,85.64
2018-05-13T22:01:51.510Z,86.24
2018-05-13T22:04:18.975Z,86.59
2018-05-13T22:06:46.512Z,86.46
2018-05-13T22:09:13.987Z,86.52
2018-05-13T22:11:41.535Z,86.35
2018-05-13T22:14:09.055Z,86.38
2018-05-13T22:16:36.508Z,86.19
2018-05-13T22:19:04.023Z,86.62
2018-05-13T22:21:31.480Z,87.11
2018-05-13T22:23:58.974Z,87.55
2018-05-13T22:26:26.449Z,87.36
2018-05-13T22:28:53.954Z,87.05
2018-05-13T22:31:21.445Z,87.41
2018-05-13T22:33:48.945Z,87.40
2018-05-13T22:36:16.418Z,86.97
2018-05-13T22:38:43.885Z,86.79
2018-05-13T22:41:11.378Z,86.26
2018-05-13T22:43:38.843Z,85.84
2018-05-13T22:46:06.339Z,86.00
2018-05-13T22:48:33.829Z,86.14
2018-05-13T22:51:01.354Z,86.49
2018-05-13T22:53:28.853Z,86.98
2018-05-13T22:55:56.346Z,87.19
2018-05-13T22:58:23.872Z,87.18
2018-05-13T23:00:51.444Z,87.06
2018-05-13T23:03:18.969Z,87.30
2018-05-13T23:05:46.447Z,87.49
2018-05-13T23:08:13.942Z,87.75
2018-05-13T23:10:41.468Z,87.62
2018-05-13T23:13:08.977Z,87.54
2018-05-13T23:15:36.480Z,87.52
2018-05-13T23:18:04.021Z,86.88
2018-05-13T23:20:31.556Z,87.06
2018-05-13T23:22:59.593Z,87.28
2018-05-13T23:25:27.287Z,87.05
2018-05-13T23:27:54.824Z,87.50
2018-05-13T23:30:22.335Z,87.51
2018-05-13T23:32:49.862Z,87.43
2018-05-13T23:35:17.341Z,87.52
2018-05-13T23:37:44.820Z,87.29
2018-05-13T23:40:12.317Z,87.31
2018-05-13T23:42:39.842Z,87.42
2018-05-13T23:45:07.349Z,87.25
2018-05-13T23:47:34.834Z,87.45
2018-05-13T23:50:02.349Z,87.50
2018-05-13T23:52:29.849Z,87.45
2018-05-13T23:54:57.345Z,87.48
2018-05-13T23:57:24.835Z,87.17
2018-05-13T23:59:52.337Z,87.30
